createdAt,value
2018-09-26T00:02:11.199Z,3.40
2018-09-26T00:04:42.852Z,3.53
2018-09-26T00:07:10.636Z,3.17
2018-09-26T00:09:38.381Z,3.40
2018-09-26T00:12:06.340Z,3.20
2018-09-26T00:14:34.130Z,3.23
2018-09-26T00:17:01.873Z,2.97
2018-09-26T00:19:29.712Z,3.00
2018-09-26T00:21:57.508Z,2.90
2018-09-26T00:24:25.272Z,3.00
2018-09-26T00:26:53.093Z,2.90
2018-09-26T00:29:20.918Z,3.30
2018-09-26T00:31:48.711Z,2.70
2018-09-26T00:34:16.438Z,2.90
2018-09-26T00:36:44.225Z,3.00
2018-09-26T00:39:12.037Z,2.77
2018-09-26T00:41:39.837Z,2.73
2018-09-26T00:44:07.648Z,2.90
2018-09-26T00:46:35.581Z,2.60
2018-09-26T00:49:03.373Z,2.60
2018-09-26T00:51:31.188Z,3.03
2018-09-26T00:53:58.944Z,3.00
2018-09-26T00:56:26.813Z,3.00
2018-09-26T00:58:54.669Z,3.83
2018-09-26T01:01:22.460Z,2.70
2018-09-26T01:03:50.221Z,2.90
2018-09-26T01:06:18.305Z,2.80
2018-09-26T01:08:46.130Z,2.23
2018-09-26T01:11:13.913Z,3.00
2018-09-26T01:13:41.665Z,2.53
2018-09-26T01:16:09.522Z,2.70
2018-09-26T01:18:37.308Z,2.93
2018-09-26T01:21:05.205Z,2.67
2018-09-26T01:23:33.027Z,2.90
2018-09-26T01:26:00.791Z,2.90
2018-09-26T01:28:28.575Z,2.33
2018-09-26T01:30:56.352Z,2.50
2018-09-26T01:33:24.121Z,2.47
2018-09-26T01:35:51.941Z,2.87
2018-09-26T01:38:19.708Z,2.57
2018-09-26T01:40:47.501Z,3.07
2018-09-26T01:43:15.303Z,2.50
2018-09-26T01:45:43.016Z,2.80
2018-09-26T01:48:10.802Z,2.60
2018-09-26T01:50:38.577Z,2.80
2018-09-26T01:53:06.415Z,2.73
2018-09-26T01:55:34.190Z,2.73
2018-09-26T01:58:01.951Z,2.50
2018-09-26T02:00:29.724Z,3.00
2018-09-26T02:02:57.580Z,2.43
2018-09-26T02:05:25.452Z,2.77
2018-09-26T02:07:53.258Z,3.03
2018-09-26T02:10:20.997Z,3.40
2018-09-26T02:12:48.761Z,3.63
2018-09-26T02:15:16.509Z,3.83
2018-09-26T02:17:44.362Z,4.53
2018-09-26T02:20:12.156Z,4.33
2018-09-26T02:22:39.942Z,4.03
2018-09-26T02:25:07.818Z,4.20
2018-09-26T02:27:35.681Z,3.67
2018-09-26T02:30:03.467Z,3.70
2018-09-26T02:32:31.259Z,3.70
2018-09-26T02:34:59.003Z,3.37
2018-09-26T02:37:26.748Z,3.53
2018-09-26T02:39:54.496Z,3.03
2018-09-26T02:42:22.298Z,3.33
2018-09-26T02:44:50.101Z,3.00
2018-09-26T02:47:17.916Z,3.13
2018-09-26T02:49:45.760Z,3.53
2018-09-26T02:52:13.644Z,3.47
2018-09-26T02:54:41.515Z,3.20
2018-09-26T02:57:09.311Z,3.20
2018-09-26T02:59:37.080Z,3.10
2018-09-26T03:02:04.870Z,3.00
2018-09-26T03:04:32.699Z,2.87
2018-09-26T03:07:00.526Z,2.70
2018-09-26T03:09:28.320Z,3.10
2018-09-26T03:11:56.164Z,2.87
2018-09-26T03:14:23.979Z,2.90
2018-09-26T03:16:51.811Z,3.00
2018-09-26T03:19:19.636Z,2.87
2018-09-26T03:21:47.401Z,2.70
2018-09-26T03:24:15.157Z,2.60
2018-09-26T03:26:42.939Z,2.30
2018-09-26T03:29:10.823Z,3.00
2018-09-26T03:31:38.589Z,2.90
2018-09-26T03:34:06.626Z,2.90
2018-09-26T03:36:34.372Z,2.77
2018-09-26T03:39:02.214Z,2.47
2018-09-26T03:41:30.021Z,2.57
2018-09-26T03:43:57.804Z,2.50
2018-09-26T03:46:25.628Z,3.23
2018-09-26T03:48:53.416Z,2.80
2018-09-26T03:51:21.266Z,2.20
2018-09-26T03:53:49.064Z,2.70
2018-09-26T03:56:16.925Z,2.40
2018-09-26T03:58:44.770Z,2.37
2018-09-26T04:01:12.638Z,2.60
2018-09-26T04:03:40.468Z,2.70
2018-09-26T04:06:08.310Z,2.70
2018-09-26T04:08:36.095Z,2.90
2018-09-26T04:11:03.885Z,3.03
2018-09-26T04:13:31.734Z,2.80
2018-09-26T04:15:59.566Z,2.73
2018-09-26T04:18:27.408Z,2.90
2018-09-26T04:20:55.573Z,3.13
2018-09-26T04:23:23.333Z,3.37
2018-09-26T04:25:51.100Z,3.00
2018-09-26T04:28:18.911Z,3.63
2018-09-26T04:30:46.810Z,2.80
2018-09-26T04:33:15.023Z,3.20
2018-09-26T04:35:42.589Z,2.73
2018-09-26T04:38:10.514Z,2.60
2018-09-26T04:40:38.687Z,3.20
2018-09-26T04:43:06.573Z,2.87
2018-09-26T04:45:34.412Z,2.60
2018-09-26T04:48:02.242Z,2.87
2018-09-26T04:50:29.994Z,3.00
2018-09-26T04:52:57.834Z,3.40
2018-09-26T04:55:25.685Z,2.67
2018-09-26T04:57:53.647Z,2.73
2018-09-26T05:00:21.425Z,3.07
2018-09-26T05:02:49.251Z,2.43
2018-09-26T05:05:17.152Z,2.90
2018-09-26T05:07:45.001Z,3.03
2018-09-26T05:10:12.801Z,3.80
2018-09-26T05:12:40.635Z,3.40
2018-09-26T05:15:08.472Z,3.47
2018-09-26T05:17:36.345Z,3.37
2018-09-26T05:20:04.274Z,3.03
2018-09-26T05:22:32.091Z,4.10
2018-09-26T05:24:59.944Z,3.97
2018-09-26T05:27:27.730Z,4.57
2018-09-26T05:29:55.525Z,4.17
2018-09-26T05:32:23.247Z,3.80
2018-09-26T05:34:51.139Z,4.20
2018-09-26T05:37:19.023Z,4.30
2018-09-26T05:39:47.051Z,3.17
2018-09-26T05:42:14.796Z,3.27
2018-09-26T05:44:42.627Z,3.43
2018-09-26T05:47:10.405Z,3.27
2018-09-26T05:49:38.173Z,3.10
2018-09-26T05:52:06.028Z,3.00
2018-09-26T05:54:33.800Z,3.23
2018-09-26T05:57:01.656Z,2.83
2018-09-26T05:59:29.557Z,3.10
2018-09-26T06:01:57.332Z,3.00
2018-09-26T06:04:25.055Z,2.53
2018-09-26T06:06:52.786Z,3.20
2018-09-26T06:09:20.643Z,3.10
2018-09-26T06:11:48.389Z,3.80
2018-09-26T06:14:16.130Z,2.73
2018-09-26T06:16:43.942Z,2.97
2018-09-26T06:19:11.704Z,3.30
2018-09-26T06:21:39.631Z,3.33
2018-09-26T06:24:07.949Z,2.90
2018-09-26T06:26:35.721Z,2.90
2018-09-26T06:29:03.486Z,2.80
2018-09-26T06:31:31.360Z,3.40
2018-09-26T06:33:59.151Z,3.37
2018-09-26T06:36:26.938Z,3.47
2018-09-26T06:38:54.821Z,4.00
2018-09-26T06:41:22.680Z,3.43
2018-09-26T06:43:50.532Z,3.10
2018-09-26T06:46:18.457Z,2.97
2018-09-26T06:48:46.238Z,3.00
2018-09-26T06:51:14.078Z,3.27
2018-09-26T06:53:41.892Z,3.20
2018-09-26T06:56:09.745Z,3.03
2018-09-26T06:58:37.521Z,2.63
2018-09-26T07:01:05.622Z,2.50
2018-09-26T07:03:33.478Z,2.73
2018-09-26T07:06:01.362Z,2.87
2018-09-26T07:08:29.177Z,2.80
2018-09-26T07:10:57.038Z,3.53
2018-09-26T07:13:24.853Z,2.67
2018-09-26T07:15:52.647Z,2.57
2018-09-26T07:18:20.369Z,2.70
2018-09-26T07:20:48.196Z,2.30
2018-09-26T07:23:15.977Z,2.43
2018-09-26T07:25:43.761Z,2.90
2018-09-26T07:28:11.553Z,2.77
2018-09-26T07:30:39.381Z,2.57
2018-09-26T07:33:07.132Z,2.53
2018-09-26T07:35:34.949Z,2.30
2018-09-26T07:38:02.893Z,2.60
2018-09-26T07:40:30.656Z,2.83
2018-09-26T07:42:58.407Z,3.00
2018-09-26T07:45:26.286Z,2.70
2018-09-26T07:47:53.944Z,2.70
2018-09-26T07:50:21.735Z,2.60
2018-09-26T07:52:49.540Z,3.13
2018-09-26T07:55:17.361Z,3.50
2018-09-26T07:57:45.290Z,2.80
2018-09-26T08:00:13.067Z,2.80
2018-09-26T08:02:40.819Z,2.20
2018-09-26T08:05:08.680Z,2.50
2018-09-26T08:07:36.451Z,2.50
2018-09-26T08:10:04.211Z,2.40
2018-09-26T08:12:32.116Z,2.90
2018-09-26T08:14:59.960Z,2.83
2018-09-26T08:17:27.722Z,2.60
2018-09-26T08:19:55.533Z,2.53
2018-09-26T08:22:23.342Z,2.50
2018-09-26T08:24:51.158Z,2.53
2018-09-26T08:27:18.939Z,3.20
2018-09-26T08:29:46.717Z,2.90
2018-09-26T08:32:14.579Z,2.10
2018-09-26T08:34:42.457Z,2.70
2018-09-26T08:37:10.269Z,2.70
2018-09-26T08:39:38.036Z,2.80
2018-09-26T08:42:05.875Z,2.60
2018-09-26T08:44:33.752Z,2.43
2018-09-26T08:47:01.563Z,2.72
2018-09-26T08:49:29.388Z,2.35
2018-09-26T08:51:57.172Z,2.40
2018-09-26T08:54:24.984Z,3.00
2018-09-26T08:56:52.820Z,2.40
2018-09-26T08:59:20.569Z,1.95
2018-09-26T09:01:48.670Z,1.45
2018-09-26T09:04:17.557Z,1.60
2018-09-26T09:06:45.880Z,1.37
2018-09-26T09:09:13.700Z,1.32
2018-09-26T09:11:41.630Z,1.20
2018-09-26T09:14:09.454Z,1.70
2018-09-26T09:16:37.337Z,1.40
2018-09-26T09:19:05.268Z,1.30
2018-09-26T09:21:33.112Z,1.20
2018-09-26T09:24:00.977Z,1.22
2018-09-26T09:26:28.954Z,1.05
2018-09-26T09:29:26.628Z,1.20
2018-09-26T09:31:54.668Z,1.30
2018-09-26T09:34:22.459Z,1.10
2018-09-26T09:36:50.387Z,1.30
2018-09-26T09:39:18.179Z,1.60
2018-09-26T09:41:46.084Z,1.22
2018-09-26T09:44:14.001Z,1.10
2018-09-26T09:46:41.796Z,1.17
2018-09-26T09:49:09.678Z,1.40
2018-09-26T09:51:37.566Z,1.40
2018-09-26T09:54:05.565Z,1.42
2018-09-26T09:56:33.415Z,2.12
2018-09-26T09:59:01.274Z,7.42
2018-09-26T10:01:29.333Z,8.38
2018-09-26T10:03:58.673Z,7.15
2018-09-26T10:06:26.995Z,2.67
2018-09-26T10:08:55.136Z,2.02
2018-09-26T10:11:23.026Z,1.20
2018-09-26T10:13:50.904Z,1.25
2018-09-26T10:16:18.878Z,1.37
2018-09-26T10:18:46.820Z,1.42
2018-09-26T10:21:14.729Z,1.57
2018-09-26T10:23:42.548Z,1.85
2018-09-26T10:26:10.704Z,1.42
2018-09-26T10:28:38.706Z,1.45
2018-09-26T10:31:06.633Z,1.42
2018-09-26T10:33:34.501Z,1.30
2018-09-26T10:36:02.418Z,1.25
2018-09-26T10:38:30.202Z,1.37
2018-09-26T10:40:58.074Z,1.50
2018-09-26T10:43:25.893Z,1.10
2018-09-26T10:45:53.757Z,1.10
2018-09-26T10:48:21.641Z,1.20
2018-09-26T10:50:49.527Z,1.00
2018-09-26T10:53:17.417Z,1.20
2018-09-26T10:55:44.993Z,1.10
2018-09-26T10:58:12.524Z,1.72
2018-09-26T11:00:40.084Z,1.30
2018-09-26T11:03:07.653Z,1.12
2018-09-26T11:05:35.216Z,1.10
2018-09-26T11:08:02.763Z,1.00
2018-09-26T11:10:30.312Z,1.15
2018-09-26T11:12:57.867Z,1.10
2018-09-26T11:15:25.450Z,1.30
2018-09-26T11:17:53.019Z,0.93
2018-09-26T11:20:20.640Z,1.35
2018-09-26T11:22:48.172Z,1.02
2018-09-26T11:25:15.704Z,1.42
2018-09-26T11:27:43.258Z,1.30
2018-09-26T11:30:10.811Z,1.25
2018-09-26T11:32:38.360Z,1.20
2018-09-26T11:35:06.108Z,1.25
2018-09-26T11:37:33.675Z,1.22
2018-09-26T11:40:01.240Z,1.47
2018-09-26T11:42:28.995Z,1.40
2018-09-26T11:44:56.512Z,1.17
2018-09-26T11:47:24.032Z,1.35
2018-09-26T11:49:51.584Z,1.25
2018-09-26T11:52:19.169Z,1.40
2018-09-26T11:54:46.648Z,1.40
2018-09-26T11:57:14.174Z,1.42
2018-09-26T11:59:41.694Z,1.10
2018-09-26T12:02:09.321Z,1.37
2018-09-26T12:04:36.789Z,1.10
2018-09-26T12:07:04.343Z,1.20
2018-09-26T12:09:32.044Z,1.52
2018-09-26T12:11:59.591Z,1.10
2018-09-26T12:14:27.116Z,1.20
2018-09-26T12:16:54.656Z,1.12
2018-09-26T12:19:22.219Z,1.50
2018-09-26T12:21:49.836Z,1.20
2018-09-26T12:24:17.353Z,1.20
2018-09-26T12:26:44.801Z,1.35
2018-09-26T12:29:12.340Z,1.05
2018-09-26T12:31:39.890Z,1.10
2018-09-26T12:34:07.462Z,1.20
2018-09-26T12:36:34.976Z,1.30
2018-09-26T12:39:03.399Z,1.20
2018-09-26T12:41:30.934Z,1.20
2018-09-26T12:43:58.456Z,1.20
2018-09-26T12:46:26.073Z,1.20
2018-09-26T12:48:53.601Z,1.00
2018-09-26T12:51:21.181Z,1.30
2018-09-26T12:53:55.646Z,1.50
2018-09-26T12:56:23.123Z,1.30
2018-09-26T12:58:50.673Z,1.52
2018-09-26T13:01:18.211Z,1.32
2018-09-26T13:03:45.741Z,1.27
2018-09-26T13:06:13.339Z,1.20
2018-09-26T13:08:40.844Z,1.30
2018-09-26T13:11:08.410Z,1.35
2018-09-26T13:13:35.948Z,1.20
2018-09-26T13:16:03.493Z,1.40
2018-09-26T13:18:31.053Z,1.32
2018-09-26T13:20:58.598Z,1.55
2018-09-26T13:23:26.135Z,1.40
2018-09-26T13:25:53.692Z,1.50
2018-09-26T13:28:21.312Z,1.72
2018-09-26T13:30:48.814Z,1.32
2018-09-26T13:33:16.353Z,1.52
2018-09-26T13:35:43.875Z,1.75
2018-09-26T13:38:11.465Z,1.50
2018-09-26T13:40:38.956Z,1.70
2018-09-26T13:43:06.704Z,1.57
2018-09-26T13:45:34.287Z,1.90
2018-09-26T13:48:01.782Z,1.72
2018-09-26T13:50:29.336Z,1.55
2018-09-26T13:52:56.921Z,1.40
2018-09-26T13:55:24.468Z,1.50
2018-09-26T13:57:52.016Z,1.60
2018-09-26T14:00:19.597Z,1.50
2018-09-26T14:02:47.488Z,1.42
2018-09-26T14:05:15.085Z,1.37
2018-09-26T14:07:42.637Z,1.60
2018-09-26T14:10:10.181Z,1.60
2018-09-26T14:12:37.723Z,1.30
2018-09-26T14:15:05.534Z,1.30
2018-09-26T14:17:33.064Z,1.62
2018-09-26T14:20:24.119Z,1.70
2018-09-26T14:22:52.082Z,1.17
2018-09-26T14:25:19.898Z,1.55
2018-09-26T14:27:47.928Z,1.30
2018-09-26T14:30:15.881Z,1.37
2018-09-26T14:32:43.751Z,1.40
2018-09-26T14:35:11.661Z,1.70
2018-09-26T14:37:39.589Z,1.55
2018-09-26T14:40:08.576Z,1.60
2018-09-26T14:42:36.549Z,1.55
2018-09-26T14:45:04.646Z,1.55
2018-09-26T14:47:32.823Z,1.42
2018-09-26T14:50:00.789Z,1.10
2018-09-26T14:52:28.751Z,1.52
2018-09-26T14:54:56.713Z,1.67
2018-09-26T14:57:24.761Z,1.70
2018-09-26T14:59:52.659Z,1.65
2018-09-26T15:02:20.673Z,1.40
2018-09-26T15:04:48.595Z,1.60
2018-09-26T15:07:16.563Z,1.12
2018-09-26T15:09:44.515Z,1.30
2018-09-26T15:12:12.497Z,1.30
2018-09-26T15:14:40.453Z,1.30
2018-09-26T15:17:08.419Z,1.22
2018-09-26T15:19:36.456Z,1.42
2018-09-26T15:22:04.458Z,1.30
2018-09-26T15:24:32.425Z,1.30
2018-09-26T15:27:00.405Z,1.45
2018-09-26T15:29:28.375Z,1.35
2018-09-26T15:31:56.331Z,1.20
2018-09-26T15:34:24.332Z,1.20
2018-09-26T15:36:52.263Z,1.27
2018-09-26T15:39:20.241Z,1.22
2018-09-26T15:41:48.152Z,1.35
2018-09-26T15:44:16.097Z,2.08
2018-09-26T15:46:43.975Z,1.60
2018-09-26T15:49:11.892Z,2.00
2018-09-26T15:51:39.793Z,1.72
2018-09-26T15:54:08.219Z,1.20
2018-09-26T15:56:36.100Z,1.40
2018-09-26T15:59:04.043Z,1.40
2018-09-26T16:01:31.947Z,1.30
2018-09-26T16:04:22.179Z,1.40
2018-09-26T16:06:49.636Z,1.50
2018-09-26T16:09:17.229Z,1.60
2018-09-26T16:11:44.813Z,1.40
2018-09-26T16:14:12.533Z,1.17
2018-09-26T16:16:40.036Z,1.37
2018-09-26T16:19:07.624Z,1.42
2018-09-26T16:21:35.135Z,1.30
2018-09-26T16:24:02.684Z,1.67
2018-09-26T16:26:30.227Z,1.50
2018-09-26T16:28:57.783Z,1.30
2018-09-26T16:31:25.351Z,1.52
2018-09-26T16:33:53.156Z,1.40
2018-09-26T16:36:20.757Z,1.62
2018-09-26T16:38:48.272Z,1.30
2018-09-26T16:41:15.815Z,1.60
2018-09-26T16:43:43.337Z,1.85
2018-09-26T16:46:10.863Z,1.75
2018-09-26T16:48:38.417Z,1.60
2018-09-26T16:51:06.133Z,1.90
2018-09-26T16:53:33.696Z,1.60
2018-09-26T16:56:01.216Z,1.80
2018-09-26T16:58:28.747Z,1.80
2018-09-26T17:00:56.303Z,2.07
2018-09-26T17:03:23.827Z,1.73
2018-09-26T17:05:51.331Z,2.10
2018-09-26T17:08:18.977Z,1.90
2018-09-26T17:10:46.845Z,2.20
2018-09-26T17:13:14.564Z,2.17
2018-09-26T17:15:42.603Z,2.27
2018-09-26T17:18:10.179Z,2.13
2018-09-26T17:20:37.676Z,1.87
2018-09-26T17:23:05.213Z,1.77
2018-09-26T17:25:32.745Z,1.80
2018-09-26T17:28:00.265Z,1.90
2018-09-26T17:30:27.797Z,1.70
2018-09-26T17:32:55.307Z,1.80
2018-09-26T17:35:49.848Z,1.90
2018-09-26T17:38:17.363Z,1.57
2018-09-26T17:40:44.917Z,1.80
2018-09-26T17:43:12.514Z,1.80
2018-09-26T17:45:40.159Z,1.80
2018-09-26T17:48:07.641Z,1.83
2018-09-26T17:50:35.364Z,2.53
2018-09-26T17:53:02.915Z,2.37
2018-09-26T17:55:30.467Z,1.93
2018-09-26T17:57:58.336Z,2.27
2018-09-26T18:00:25.988Z,2.03
2018-09-26T18:02:53.437Z,2.53
2018-09-26T18:05:21.024Z,2.13
2018-09-26T18:07:48.551Z,3.00
2018-09-26T18:10:43.648Z,3.23
2018-09-26T18:13:11.221Z,3.03
2018-09-26T18:15:38.778Z,3.37
2018-09-26T18:18:06.475Z,3.30
2018-09-26T18:20:34.247Z,3.77
2018-09-26T18:23:01.781Z,3.27
2018-09-26T18:25:29.339Z,2.87
2018-09-26T18:27:56.935Z,3.10
2018-09-26T18:30:24.476Z,2.87
2018-09-26T18:32:52.008Z,3.03
2018-09-26T18:35:37.815Z,2.80
2018-09-26T18:38:05.351Z,2.50
2018-09-26T18:40:32.948Z,2.90
2018-09-26T18:43:00.504Z,2.50
2018-09-26T18:45:28.072Z,2.30
2018-09-26T18:47:55.594Z,2.40
2018-09-26T18:50:23.141Z,2.57
2018-09-26T18:52:50.681Z,2.20
2018-09-26T18:55:18.215Z,2.50
2018-09-26T18:57:45.746Z,2.53
2018-09-26T19:00:13.276Z,2.50
2018-09-26T19:02:40.804Z,2.40
2018-09-26T19:05:08.423Z,2.20
2018-09-26T19:07:35.927Z,1.77
2018-09-26T19:10:04.108Z,2.40
2018-09-26T19:12:31.703Z,1.80
2018-09-26T19:14:59.215Z,2.13
2018-09-26T19:17:26.747Z,1.80
2018-09-26T19:19:54.282Z,1.97
2018-09-26T19:22:21.817Z,1.77
2018-09-26T19:24:49.339Z,2.00
2018-09-26T19:27:16.889Z,2.00
2018-09-26T19:29:44.428Z,1.80
2018-09-26T19:32:11.972Z,1.87
2018-09-26T19:34:39.538Z,1.70
2018-09-26T19:37:07.086Z,2.07
2018-09-26T19:39:34.639Z,2.40
2018-09-26T19:42:02.162Z,2.20
2018-09-26T19:44:29.684Z,1.70
2018-09-26T19:46:57.210Z,1.97
2018-09-26T19:49:24.907Z,2.00
2018-09-26T19:51:52.436Z,2.13
2018-09-26T19:54:19.952Z,1.80
2018-09-26T19:56:57.849Z,2.33
2018-09-26T19:59:25.362Z,1.77
2018-09-26T20:01:52.894Z,1.80
2018-09-26T20:04:30.843Z,2.30
2018-09-26T20:06:58.396Z,1.87
2018-09-26T20:12:29.430Z,2.10
2018-09-26T20:14:57.052Z,1.77
2018-09-26T20:17:24.569Z,2.00
2018-09-26T20:19:52.103Z,1.70
2018-09-26T20:22:34.048Z,1.73
2018-09-26T20:25:01.780Z,1.80
2018-09-26T20:27:29.321Z,2.10
2018-09-26T20:29:56.859Z,1.77
2018-09-26T20:32:24.377Z,1.80
2018-09-26T20:34:52.089Z,1.67
2018-09-26T20:37:19.624Z,1.70
2018-09-26T20:39:47.393Z,1.90
2018-09-26T20:42:16.188Z,1.90
2018-09-26T20:44:43.703Z,2.03
2018-09-26T20:47:11.409Z,1.83
2018-09-26T20:49:38.936Z,1.73
2018-09-26T20:52:06.614Z,1.80
2018-09-26T20:54:34.136Z,2.07
2018-09-26T20:57:01.655Z,1.80
2018-09-26T20:59:29.223Z,1.87
2018-09-26T21:01:56.746Z,1.87
2018-09-26T21:04:29.877Z,1.73
2018-09-26T21:06:57.422Z,1.90
2018-09-26T21:09:36.743Z,1.90
2018-09-26T21:12:18.327Z,1.63
2018-09-26T21:14:45.880Z,1.70
2018-09-26T21:17:23.281Z,1.70
2018-09-26T21:19:51.832Z,1.90
2018-09-26T21:22:32.427Z,1.77
2018-09-26T21:25:00.100Z,1.47
2018-09-26T21:27:27.622Z,1.70
2018-09-26T21:29:55.143Z,1.80
2018-09-26T21:32:22.669Z,1.73
2018-09-26T21:34:50.208Z,1.87
2018-09-26T21:37:17.736Z,1.60
2018-09-26T21:39:45.264Z,1.97
2018-09-26T21:42:12.802Z,1.73
2018-09-26T21:44:40.345Z,1.90
2018-09-26T21:47:07.883Z,1.40
2018-09-26T21:49:35.415Z,1.60
2018-09-26T21:52:02.980Z,1.50
2018-09-26T21:54:30.603Z,1.50
2018-09-26T21:57:05.345Z,1.83
2018-09-26T21:59:32.889Z,1.70
2018-09-26T22:02:00.443Z,1.50
2018-09-26T22:04:28.013Z,1.60
2018-09-26T22:06:55.555Z,1.47
2018-09-26T22:09:23.088Z,1.40
2018-09-26T22:11:50.644Z,1.73
2018-09-26T22:14:18.176Z,1.80
2018-09-26T22:16:45.733Z,1.80
2018-09-26T22:19:13.280Z,1.70
2018-09-26T22:21:40.819Z,1.50
2018-09-26T22:24:08.343Z,1.50
2018-09-26T22:26:35.875Z,2.00
2018-09-26T22:29:03.411Z,1.70
2018-09-26T22:31:30.952Z,1.50
2018-09-26T22:33:58.505Z,1.70
2018-09-26T22:36:26.060Z,1.60
2018-09-26T22:38:54.443Z,1.50
2018-09-26T22:41:21.978Z,1.80
2018-09-26T22:43:49.511Z,1.30
2018-09-26T22:46:17.060Z,1.60
2018-09-26T22:48:44.605Z,1.60
2018-09-26T22:51:12.139Z,1.45
2018-09-26T22:53:39.670Z,1.60
2018-09-26T22:56:07.220Z,1.40
2018-09-26T22:58:34.756Z,1.43
2018-09-26T23:01:02.521Z,1.33
2018-09-26T23:03:30.058Z,1.53
2018-09-26T23:05:57.610Z,1.50
2018-09-26T23:08:25.144Z,1.20
2018-09-26T23:10:52.682Z,1.30
2018-09-26T23:13:20.211Z,1.40
2018-09-26T23:15:47.747Z,1.40
2018-09-26T23:18:15.301Z,1.60
2018-09-26T23:20:42.860Z,1.55
2018-09-26T23:23:10.412Z,1.70
2018-09-26T23:25:37.944Z,1.45
2018-09-26T23:28:05.495Z,1.60
2018-09-26T23:30:33.027Z,1.50
2018-09-26T23:33:00.551Z,1.55
2018-09-26T23:35:28.079Z,1.50
2018-09-26T23:37:55.619Z,1.40
2018-09-26T23:40:23.150Z,1.30
2018-09-26T23:42:50.701Z,1.50
2018-09-26T23:45:18.241Z,1.50
2018-09-26T23:47:45.800Z,1.52
2018-09-26T23:50:13.342Z,1.35
2018-09-26T23:52:40.891Z,1.50
2018-09-26T23:55:08.424Z,1.60
2018-09-26T23:57:35.947Z,1.15
